Time;durP1;ratioP1;P1;durP2;ratioP2;P2;SDS_P1;SDS_P2;PMS_P1;PMS_P2;Temp;Humidity;BMP_temperature;BMP_pressure;BME280_temperature;BME280_humidity;BME280_pressure;Samples;Min_cycle;Max_cycle;Signal;HPM_P1;HPM_P2
2022/09/01 00:02:15;;;;;;;0.40;0.40;;;19.00;53.90;;;;;;4915440;29;20204;-49
2022/09/01 00:04:46;;;;;;;0.40;0.40;;;19.00;53.90;;;;;;4914896;29;20235;-35
2022/09/01 00:07:19;;;;;;;0.32;0.28;;;19.10;53.90;;;;;;4903140;29;20260;-41
2022/09/01 00:09:53;;;;;;;0.68;0.60;;;19.10;53.90;;;;;;4914935;29;20707;-34
2022/09/01 00:12:24;;;;;;;1.00;0.90;;;19.10;53.90;;;;;;4932937;29;20223;-47
2022/09/01 00:14:55;;;;;;;0.73;0.68;;;19.10;53.90;;;;;;4928126;29;20235;-51
2022/09/01 00:17:26;;;;;;;1.02;0.70;;;19.20;54.00;;;;;;4915405;29;20568;-52
2022/09/01 00:19:56;;;;;;;1.48;0.77;;;19.20;54.00;;;;;;4915036;29;20228;-48
2022/09/01 00:22:29;;;;;;;1.05;0.52;;;19.20;54.00;;;;;;4915372;29;20219;-48
2022/09/01 00:25:00;;;;;;;1.65;0.68;;;19.30;54.00;;;;;;4915249;29;20263;-48
2022/09/01 00:27:31;;;;;;;0.40;0.40;;;19.30;54.00;;;;;;4895852;29;20205;-51
2022/09/01 00:30:02;;;;;;;1.67;0.50;;;19.40;54.00;;;;;;4901571;29;20204;-42
2022/09/01 00:32:33;;;;;;;1.58;0.60;;;19.40;54.00;;;;;;4914150;29;20223;-39
2022/09/01 00:35:04;;;;;;;0.63;0.63;;;19.40;53.90;;;;;;4914557;29;20222;-40
2022/09/01 00:37:36;;;;;;;0.55;0.50;;;19.50;54.00;;;;;;4914635;29;20200;-49
2022/09/01 00:40:09;;;;;;;0.40;0.40;;;19.50;53.90;;;;;;4915124;29;20200;-38
2022/09/01 00:42:40;;;;;;;1.13;0.60;;;19.50;53.90;;;;;;4914101;29;20244;-34
2022/09/01 00:45:12;;;;;;;0.70;0.50;;;19.60;53.90;;;;;;4914072;29;20268;-39
2022/09/01 00:47:43;;;;;;;0.63;0.50;;;19.60;54.00;;;;;;4903746;29;20207;-35
2022/09/01 00:50:17;;;;;;;0.60;0.60;;;19.60;54.00;;;;;;4914204;29;20200;-34
2022/09/01 00:52:54;;;;;;;1.50;0.50;;;19.60;54.00;;;;;;4897802;29;20642;-43
2022/09/01 00:55:28;;;;;;;0.50;0.50;;;19.70;54.00;;;;;;4903483;29;20211;-35
2022/09/01 00:58:00;;;;;;;1.00;0.40;;;19.70;54.00;;;;;;4903875;29;20670;-34
2022/09/01 01:00:32;;;;;;;0.50;0.50;;;19.80;54.10;;;;;;4914421;29;20192;-47
2022/09/01 01:03:03;;;;;;;0.43;0.40;;;19.80;54.10;;;;;;4913313;29;20215;-50
2022/09/01 01:05:39;;;;;;;0.98;0.50;;;19.80;54.60;;;;;;4912911;29;20582;-49
2022/09/01 01:08:12;;;;;;;0.60;0.55;;;19.90;54.10;;;;;;4909626;29;20208;-41
2022/09/01 01:10:45;;;;;;;0.77;0.55;;;19.90;54.10;;;;;;4913378;29;20281;-46
2022/09/01 01:13:17;;;;;;;0.40;0.40;;;19.90;54.00;;;;;;4913478;29;20231;-35
2022/09/01 01:15:48;;;;;;;0.57;0.50;;;19.90;53.90;;;;;;4913331;29;20215;-40
2022/09/01 01:18:19;;;;;;;0.70;0.50;;;20.00;54.00;;;;;;4913780;29;20196;-52
2022/09/01 01:23:47;;;;;;;0.47;0.40;;;20.10;54.10;;;;;;4913859;29;20203;-40
2022/09/01 01:26:19;;;;;;;0.45;0.30;;;20.10;54.00;;;;;;4912981;29;20226;-40
2022/09/01 01:28:53;;;;;;;0.43;0.32;;;20.20;54.10;;;;;;4914309;29;20207;-50
2022/09/01 01:31:25;;;;;;;0.50;0.47;;;20.20;54.00;;;;;;4914214;29;20202;-46
2022/09/01 01:33:58;;;;;;;0.52;0.30;;;20.30;54.10;;;;;;4913603;29;20248;-43
2022/09/01 01:36:32;;;;;;;0.50;0.40;;;20.30;54.10;;;;;;4914087;29;20227;-50
2022/09/01 01:39:05;;;;;;;0.43;0.35;;;20.30;54.10;;;;;;4912803;29;20208;-47
2022/09/01 01:41:39;;;;;;;0.40;0.40;;;20.30;54.00;;;;;;4915871;29;20196;-47
2022/09/01 01:44:11;;;;;;;0.60;0.35;;;20.40;54.00;;;;;;4913439;29;20235;-37
2022/09/01 01:46:45;;;;;;;0.30;0.30;;;20.40;54.00;;;;;;4927747;29;20396;-47
2022/09/01 01:49:18;;;;;;;0.40;0.40;;;20.40;54.00;;;;;;4934757;23;20234;-36
2022/09/01 01:51:54;;;;;;;0.55;0.30;;;20.50;54.00;;;;;;4898992;29;20617;-36
2022/09/01 01:54:31;;;;;;;0.30;0.30;;;20.50;54.00;;;;;;4894902;29;20315;-36
2022/09/01 01:57:05;;;;;;;0.30;0.30;;;20.50;54.00;;;;;;4895565;29;20196;-34
2022/09/01 01:59:37;;;;;;;0.30;0.30;;;20.60;53.90;;;;;;4894690;29;20192;-33
2022/09/01 02:02:08;;;;;;;0.35;0.30;;;20.60;53.90;;;;;;4895056;29;20444;-34
2022/09/01 02:04:39;;;;;;;0.45;0.30;;;20.60;53.90;;;;;;4894742;29;20247;-33
2022/09/01 02:07:13;;;;;;;0.20;0.20;;;20.70;54.00;;;;;;4894377;29;20193;-33
2022/09/01 02:09:46;;;;;;;0.40;0.40;;;20.70;54.00;;;;;;4894088;29;20218;-35
2022/09/01 02:12:20;;;;;;;0.38;0.30;;;20.70;53.90;;;;;;4893805;29;20199;-34
2022/09/01 02:14:53;;;;;;;0.70;0.35;;;20.70;53.80;;;;;;4894682;29;20621;-33
2022/09/01 02:17:25;;;;;;;0.22;0.20;;;20.70;53.80;;;;;;4897983;29;20212;-34
2022/09/01 02:19:56;;;;;;;1.45;0.40;;;20.80;53.70;;;;;;4898809;29;20205;-33
2022/09/01 02:22:27;;;;;;;0.20;0.20;;;20.80;53.80;;;;;;4898188;29;20204;-33
2022/09/01 02:24:59;;;;;;;0.20;0.20;;;20.90;53.80;;;;;;4898724;29;20696;-33
2022/09/01 02:27:35;;;;;;;0.85;0.35;;;20.90;53.80;;;;;;4901884;29;20200;-34
2022/09/01 02:30:09;;;;;;;0.30;0.30;;;20.90;53.70;;;;;;4917399;29;20200;-34
2022/09/01 02:32:40;;;;;;;0.38;0.32;;;20.90;53.70;;;;;;4896948;29;20211;-35
2022/09/01 02:35:12;;;;;;;0.40;0.30;;;21.00;53.70;;;;;;4896886;29;20227;-38
2022/09/01 02:37:45;;;;;;;0.60;0.25;;;21.00;53.70;;;;;;4896501;29;20303;-33
2022/09/01 02:40:15;;;;;;;0.20;0.20;;;21.00;53.70;;;;;;4896917;29;20213;-33
2022/09/01 02:42:51;;;;;;;0.30;0.20;;;21.00;53.60;;;;;;4895796;29;20209;-34
2022/09/01 02:45:23;;;;;;;0.30;0.30;;;21.10;53.60;;;;;;4895489;29;20623;-35
2022/09/01 02:50:24;;;;;;;0.20;0.20;;;21.10;53.50;;;;;;4913608;29;20224;-38
2022/09/01 02:52:54;;;;;;;0.30;0.30;;;21.20;53.60;;;;;;4904126;29;20205;-36
2022/09/01 02:55:25;;;;;;;0.30;0.30;;;21.20;53.60;;;;;;4896651;29;20231;-34
2022/09/01 02:57:58;;;;;;;0.40;0.40;;;21.20;53.60;;;;;;4896808;29;20565;-45
2022/09/01 03:00:31;;;;;;;0.35;0.30;;;21.30;53.60;;;;;;4876913;29;20221;-38
2022/09/01 03:03:03;;;;;;;0.47;0.35;;;21.30;53.60;;;;;;4881988;29;20292;-49
2022/09/01 03:05:37;;;;;;;0.30;0.20;;;21.40;53.60;;;;;;4886481;29;20232;-47
2022/09/01 03:08:09;;;;;;;0.35;0.22;;;21.40;53.60;;;;;;4897815;29;20215;-37
2022/09/01 03:10:42;;;;;;;0.60;0.30;;;21.40;53.50;;;;;;4897813;29;20272;-41
2022/09/01 03:13:17;;;;;;;0.30;0.30;;;21.40;53.50;;;;;;4885227;29;20193;-50
2022/09/01 03:15:48;;;;;;;0.32;0.30;;;21.50;53.40;;;;;;4887808;29;20212;-44
2022/09/01 03:18:19;;;;;;;0.50;0.40;;;21.50;53.40;;;;;;4896851;29;20288;-45
2022/09/01 03:20:51;;;;;;;1.02;0.30;;;21.50;53.30;;;;;;4897475;29;20672;-49
2022/09/01 03:23:24;;;;;;;1.02;0.40;;;21.60;53.30;;;;;;4897435;29;20879;-46
2022/09/01 03:25:55;;;;;;;0.40;0.40;;;21.60;53.30;;;;;;4897393;29;20244;-46
2022/09/01 03:28:28;;;;;;;0.20;0.20;;;21.60;53.20;;;;;;4896242;29;20546;-39
2022/09/01 03:31:00;;;;;;;0.57;0.30;;;21.70;53.30;;;;;;4897586;29;20205;-40
2022/09/01 03:33:31;;;;;;;0.52;0.50;;;21.70;53.20;;;;;;4896509;29;20263;-36
2022/09/01 03:36:02;;;;;;;0.30;0.30;;;21.80;53.20;;;;;;4896872;29;20213;-41
2022/09/01 03:38:33;;;;;;;0.95;0.22;;;21.80;53.20;;;;;;4896765;29;20216;-42
2022/09/01 03:41:06;;;;;;;0.73;0.30;;;21.90;53.20;;;;;;4896773;29;20197;-42
2022/09/01 03:43:38;;;;;;;0.60;0.30;;;21.80;53.10;;;;;;4896977;29;20221;-45
2022/09/01 03:46:09;;;;;;;0.75;0.45;;;21.90;53.20;;;;;;4896435;29;20221;-46
2022/09/01 03:48:40;;;;;;;1.27;0.50;;;22.00;53.20;;;;;;4896925;29;20251;-40
2022/09/01 03:51:13;;;;;;;1.27;0.40;;;22.00;53.10;;;;;;4907556;29;20189;-47
2022/09/01 03:53:45;;;;;;;0.47;0.30;;;22.00;53.00;;;;;;4915422;29;20239;-52
2022/09/01 03:56:16;;;;;;;0.35;0.30;;;22.00;52.90;;;;;;4894602;29;20222;-39
2022/09/01 03:58:49;;;;;;;0.60;0.50;;;22.10;52.80;;;;;;4878330;29;20210;-38
2022/09/01 04:01:20;;;;;;;0.40;0.40;;;22.10;52.80;;;;;;4896001;29;20201;-52
2022/09/01 04:03:51;;;;;;;0.57;0.30;;;22.10;52.80;;;;;;4914322;29;20627;-50
2022/09/01 04:06:22;;;;;;;0.30;0.30;;;22.10;52.80;;;;;;4913553;29;20223;-35
2022/09/01 04:09:01;;;;;;;0.45;0.30;;;22.10;52.70;;;;;;4901785;29;20232;-54
2022/09/01 04:11:32;;;;;;;0.70;0.40;;;22.10;52.80;;;;;;4894117;29;20253;-49
2022/09/01 04:14:05;;;;;;;0.52;0.40;;;22.20;52.80;;;;;;4893356;29;20654;-47
2022/09/01 04:19:26;;;;;;;1.35;0.35;;;22.20;52.80;;;;;;4895167;29;20249;-44
2022/09/01 04:21:58;;;;;;;0.47;0.40;;;22.30;52.70;;;;;;4895473;29;20201;-36
2022/09/01 04:24:32;;;;;;;0.80;0.50;;;22.30;52.60;;;;;;4895087;29;20227;-47
2022/09/01 04:27:03;;;;;;;0.55;0.40;;;22.30;52.60;;;;;;4890890;29;20197;-47
2022/09/01 04:29:36;;;;;;;0.65;0.38;;;22.40;52.70;;;;;;4881818;29;20193;-35
2022/09/01 04:32:12;;;;;;;1.45;0.30;;;22.40;53.30;;;;;;4883443;29;20220;-42
2022/09/01 04:34:43;;;;;;;0.40;0.30;;;22.40;52.60;;;;;;4895613;29;20264;-45
2022/09/01 04:37:16;;;;;;;0.95;0.40;;;22.40;52.50;;;;;;4893904;29;20211;-35
2022/09/01 04:39:52;;;;;;;0.45;0.43;;;22.50;52.60;;;;;;4893924;29;20212;-39
2022/09/01 04:42:24;;;;;;;0.30;0.30;;;22.50;52.50;;;;;;4895981;29;20211;-39
2022/09/01 04:44:58;;;;;;;0.60;0.60;;;22.50;52.50;;;;;;4895150;29;20260;-36
2022/09/01 04:47:30;;;;;;;0.30;0.30;;;22.50;52.50;;;;;;4897357;29;20236;-50
2022/09/01 04:50:03;;;;;;;0.32;0.32;;;22.50;52.50;;;;;;4895227;29;20243;-54
2022/09/01 04:52:33;;;;;;;0.52;0.40;;;22.50;52.50;;;;;;4896547;29;20232;-51
2022/09/01 04:55:04;;;;;;;0.40;0.40;;;22.60;52.60;;;;;;4895219;29;20240;-47
2022/09/01 04:57:35;;;;;;;0.65;0.40;;;22.60;52.50;;;;;;4895196;29;20197;-52
2022/09/01 05:00:21;;;;;;;0.68;0.35;;;22.60;52.50;;;;;;4895688;29;20197;-43
2022/09/01 05:02:53;;;;;;;0.57;0.50;;;22.60;52.40;;;;;;4894910;29;20213;-51
2022/09/01 05:05:24;;;;;;;0.70;0.40;;;22.60;52.40;;;;;;4895059;29;20289;-36
2022/09/01 05:07:56;;;;;;;0.32;0.32;;;22.60;52.40;;;;;;4894856;29;20212;-36
2022/09/01 05:10:28;;;;;;;1.38;0.50;;;22.60;52.30;;;;;;4896760;29;20240;-41
2022/09/01 05:13:00;;;;;;;0.70;0.40;;;22.60;52.40;;;;;;4901350;29;20601;-37
2022/09/01 05:15:32;;;;;;;0.65;0.30;;;22.60;52.50;;;;;;4881931;29;20288;-39
2022/09/01 05:18:08;;;;;;;0.80;0.30;;;22.60;52.60;;;;;;4894458;29;20256;-42
2022/09/01 05:20:43;;;;;;;0.40;0.40;;;22.70;52.60;;;;;;4894283;29;20205;-38
2022/09/01 05:23:18;;;;;;;1.67;0.50;;;22.70;52.60;;;;;;4890991;29;20196;-42
2022/09/01 05:25:53;;;;;;;1.20;0.40;;;22.70;52.50;;;;;;4898115;29;20295;-37
2022/09/01 05:28:25;;;;;;;1.42;0.50;;;22.70;52.50;;;;;;4900200;29;20280;-35
2022/09/01 05:31:02;;;;;;;0.40;0.40;;;22.70;52.40;;;;;;4895078;29;20211;-44
2022/09/01 05:33:35;;;;;;;0.30;0.30;;;22.70;52.40;;;;;;4895274;29;20201;-41
2022/09/01 05:36:07;;;;;;;0.98;0.50;;;22.60;52.30;;;;;;4895076;29;20809;-36
2022/09/01 05:38:41;;;;;;;0.50;0.50;;;22.60;52.30;;;;;;4894973;29;20723;-48
2022/09/01 05:41:14;;;;;;;0.50;0.50;;;22.60;52.50;;;;;;4897594;29;20216;-36
2022/09/01 05:43:48;;;;;;;0.50;0.40;;;22.60;52.60;;;;;;4909658;29;20247;-38
2022/09/01 05:46:23;;;;;;;0.60;0.50;;;22.60;52.60;;;;;;4912956;29;20226;-39
2022/09/01 05:48:54;;;;;;;0.50;0.40;;;22.60;52.60;;;;;;4913352;29;20206;-38
2022/09/01 05:51:27;;;;;;;0.60;0.40;;;22.60;53.20;;;;;;4913310;29;20196;-43
2022/09/01 05:53:59;;;;;;;0.80;0.50;;;22.60;52.70;;;;;;4913213;29;20666;-39
2022/09/01 05:56:31;;;;;;;0.52;0.52;;;22.60;52.70;;;;;;4913426;29;20311;-45
2022/09/01 05:59:04;;;;;;;0.70;0.60;;;22.60;52.50;;;;;;4907397;29;20201;-40
2022/09/01 06:01:39;;;;;;;1.15;0.75;;;22.60;52.40;;;;;;4894073;29;20201;-36
2022/09/01 06:04:12;;;;;;;0.80;0.63;;;22.50;52.20;;;;;;4894863;29;20664;-35
2022/09/01 06:06:45;;;;;;;1.30;0.60;;;22.50;52.70;;;;;;4894517;29;20201;-34
2022/09/01 06:09:18;;;;;;;0.60;0.60;;;22.50;52.10;;;;;;4895155;29;20232;-47
2022/09/01 06:11:49;;;;;;;0.70;0.65;;;22.50;52.20;;;;;;4895046;29;20681;-55
2022/09/01 06:14:20;;;;;;;1.10;0.70;;;22.50;52.20;;;;;;4894217;29;20240;-42
2022/09/01 06:16:53;;;;;;;0.60;0.60;;;22.40;52.20;;;;;;4894841;29;20197;-49
2022/09/01 06:19:24;;;;;;;1.30;0.80;;;22.40;52.20;;;;;;4903032;29;20199;-55
2022/09/01 06:21:55;;;;;;;1.17;0.77;;;22.40;52.30;;;;;;4908826;29;20223;-55
2022/09/01 06:24:26;;;;;;;0.95;0.77;;;22.40;52.20;;;;;;4894080;29;20224;-55
2022/09/01 06:26:57;;;;;;;0.73;0.70;;;22.40;52.30;;;;;;4894256;29;20205;-53
2022/09/01 06:29:30;;;;;;;0.73;0.73;;;22.40;52.20;;;;;;4893613;29;20233;-56
2022/09/01 06:32:02;;;;;;;1.60;0.85;;;22.30;52.10;;;;;;4893191;29;20280;-50
2022/09/01 06:34:34;;;;;;;1.08;0.90;;;22.30;52.00;;;;;;4893410;29;20227;-56
2022/09/01 06:37:05;;;;;;;1.25;0.93;;;22.30;52.00;;;;;;4893487;29;20208;-41
2022/09/01 06:39:36;;;;;;;0.88;0.85;;;22.30;52.10;;;;;;4893961;29;20236;-34
2022/09/01 06:42:08;;;;;;;1.77;1.10;;;22.30;52.10;;;;;;4893100;29;20208;-36
2022/09/01 06:44:39;;;;;;;1.17;1.08;;;22.20;52.00;;;;;;4877102;29;20217;-35
2022/09/01 06:47:12;;;;;;;1.48;1.08;;;22.20;52.10;;;;;;4875581;29;20662;-40
2022/09/01 06:49:45;;;;;;;1.42;0.85;;;22.20;52.10;;;;;;4876526;29;20206;-40
2022/09/01 06:52:17;;;;;;;0.75;0.75;;;22.20;52.20;;;;;;4875762;29;20581;-41
2022/09/01 06:54:47;;;;;;;1.10;1.00;;;22.10;52.20;;;;;;4893905;29;20240;-39
2022/09/01 06:57:18;;;;;;;1.60;0.93;;;22.10;52.20;;;;;;4894169;29;20204;-42
2022/09/01 06:59:49;;;;;;;1.30;0.90;;;22.10;52.30;;;;;;4876159;29;20694;-38
2022/09/01 07:02:22;;;;;;;1.50;0.90;;;22.10;52.20;;;;;;4876698;29;20256;-36
2022/09/01 07:04:53;;;;;;;1.08;0.90;;;22.10;52.20;;;;;;4878631;29;20233;-35
2022/09/01 07:07:24;;;;;;;0.82;0.80;;;22.00;52.20;;;;;;4879097;29;20843;-38
2022/09/01 07:09:55;;;;;;;1.10;0.90;;;22.00;52.20;;;;;;4897089;29;20204;-43
2022/09/01 07:12:27;;;;;;;1.08;0.98;;;22.00;52.20;;;;;;4897688;29;20204;-43
2022/09/01 07:14:58;;;;;;;1.35;1.00;;;22.00;52.30;;;;;;4896522;29;20236;-37
2022/09/01 07:17:31;;;;;;;1.10;1.00;;;21.90;52.30;;;;;;4897169;29;20269;-34
2022/09/01 07:20:02;;;;;;;1.60;1.00;;;21.90;52.30;;;;;;4897350;29;20288;-40
2022/09/01 07:22:33;;;;;;;1.17;1.00;;;21.90;52.30;;;;;;4894527;29;20224;-35
2022/09/01 07:25:03;;;;;;;1.38;1.10;;;21.90;52.30;;;;;;4896389;29;20697;-35
2022/09/01 07:27:34;;;;;;;1.75;1.10;;;21.90;52.40;;;;;;4897566;29;20205;-34
2022/09/01 07:30:07;;;;;;;1.42;1.00;;;21.80;52.40;;;;;;4897862;29;20197;-36
2022/09/01 07:32:43;;;;;;;1.70;1.10;;;21.80;52.30;;;;;;4896548;29;20213;-38
2022/09/01 07:35:15;;;;;;;1.20;1.05;;;21.80;52.40;;;;;;4913209;29;20689;-35
2022/09/01 07:37:47;;;;;;;1.33;1.20;;;21.80;52.40;;;;;;4913528;29;20740;-36
2022/09/01 07:40:21;;;;;;;1.67;1.13;;;21.70;52.30;;;;;;4896912;29;20391;-37
2022/09/01 07:42:57;;;;;;;1.90;1.17;;;21.70;52.30;;;;;;4895476;29;20258;-37
2022/09/01 07:45:28;;;;;;;2.05;1.25;;;21.70;52.40;;;;;;4896062;29;20578;-34
2022/09/01 07:48:05;;;;;;;1.83;1.30;;;21.70;52.40;;;;;;4895911;29;20653;-35
2022/09/01 07:50:37;;;;;;;1.50;0.98;;;21.60;52.40;;;;;;4895399;29;20204;-34
2022/09/01 07:53:07;;;;;;;1.58;1.30;;;21.60;52.40;;;;;;4895215;29;20200;-36
2022/09/01 07:55:41;;;;;;;2.08;1.30;;;21.60;52.40;;;;;;4895430;29;20418;-36
2022/09/01 07:58:12;;;;;;;1.88;1.23;;;21.60;52.50;;;;;;4895207;29;20280;-35
2022/09/01 08:00:46;;;;;;;2.13;1.30;;;21.50;52.40;;;;;;4895584;29;20205;-41
2022/09/01 08:03:20;;;;;;;1.27;1.15;;;21.50;52.40;;;;;;4895866;29;20568;-34
2022/09/01 08:05:56;;;;;;;2.60;1.35;;;21.50;52.40;;;;;;4895123;29;20216;-36
2022/09/01 08:08:27;;;;;;;1.55;1.45;;;21.50;52.40;;;;;;4886337;29;20252;-35
2022/09/01 08:10:57;;;;;;;1.30;1.20;;;21.50;52.50;;;;;;4895290;29;20205;-35
2022/09/01 08:13:28;;;;;;;2.38;1.23;;;21.50;52.50;;;;;;4895286;29;20716;-34
2022/09/01 08:15:58;;;;;;;1.17;1.08;;;21.40;52.50;;;;;;4894802;29;20235;-36
2022/09/01 08:18:31;;;;;;;1.55;1.10;;;21.40;52.50;;;;;;4895466;29;20243;-35
2022/09/01 08:21:06;;;;;;;1.67;1.10;;;21.40;52.60;;;;;;4895051;29;20264;-40
2022/09/01 08:23:37;;;;;;;1.50;1.30;;;21.40;52.70;;;;;;4894182;29;20664;-34
2022/09/01 08:26:13;;;;;;;1.85;1.50;;;21.30;52.60;;;;;;4894756;29;20227;-36
2022/09/01 08:28:43;;;;;;;1.83;1.45;;;21.30;52.60;;;;;;4894978;29;20208;-35
2022/09/01 08:31:16;;;;;;;1.90;1.10;;;21.30;52.60;;;;;;4895360;29;20209;-39
2022/09/01 08:33:51;;;;;;;2.13;1.23;;;21.30;52.90;;;;;;4895110;29;20321;-34
2022/09/01 08:36:21;;;;;;;1.48;1.33;;;21.20;52.70;;;;;;4894998;29;20229;-37
2022/09/01 08:38:52;;;;;;;2.13;1.63;;;21.20;52.70;;;;;;4887496;29;20627;-35
2022/09/01 08:41:38;;;;;;;1.40;1.30;;;21.20;52.70;;;;;;4894851;29;20197;-37
2022/09/01 08:44:20;;;;;;;1.60;1.40;;;21.20;52.70;;;;;;4881029;29;20197;-39
2022/09/01 08:46:56;;;;;;;1.65;1.55;;;21.20;52.70;;;;;;4876372;29;20228;-35
2022/09/01 08:49:29;;;;;;;1.40;1.30;;;21.10;52.70;;;;;;4876201;29;20296;-44
2022/09/01 08:52:04;;;;;;;1.30;1.20;;;21.10;52.70;;;;;;4878000;29;21126;-35
2022/09/01 08:57:21;;;;;;;1.55;1.45;;;21.10;52.70;;;;;;5965593;23;20203;-35
2022/09/01 08:59:58;;;;;;;2.30;1.70;;;21.10;52.70;;;;;;5593334;23;20249;-40
2022/09/01 09:02:38;;;;;;;1.58;1.45;;;21.00;52.70;;;;;;4913588;29;20232;-35
2022/09/01 09:05:27;;;;;;;2.17;1.52;;;21.00;52.70;;;;;;4894712;29;20319;-40
2022/09/01 09:08:22;;;;;;;2.40;1.35;;;21.00;52.70;;;;;;4897532;29;20212;-35
2022/09/01 09:11:00;;;;;;;1.65;1.35;;;20.90;52.80;;;;;;4912793;29;20648;-35
2022/09/01 09:13:42;;;;;;;1.48;1.20;;;20.90;52.80;;;;;;4912721;29;20611;-36
2022/09/01 09:16:17;;;;;;;2.53;1.60;;;20.90;52.80;;;;;;4912750;29;20759;-35
2022/09/01 09:18:53;;;;;;;2.35;1.58;;;20.90;52.90;;;;;;4911891;29;20267;-36
2022/09/01 09:21:29;;;;;;;1.65;1.30;;;20.80;52.80;;;;;;4912799;29;20707;-35
2022/09/01 09:24:07;;;;;;;1.58;1.33;;;20.80;52.90;;;;;;4914985;29;20192;-35
2022/09/01 09:26:38;;;;;;;2.25;1.40;;;20.80;52.90;;;;;;4910243;29;20255;-35
2022/09/01 09:29:08;;;;;;;1.95;1.60;;;20.80;52.90;;;;;;4894311;29;20212;-39
2022/09/01 09:31:42;;;;;;;1.70;1.30;;;20.80;53.00;;;;;;4894081;29;20200;-35
2022/09/01 09:34:31;;;;;;;2.83;1.10;;;20.80;53.00;;;;;;4903646;29;20204;-37
2022/09/01 09:37:24;;;;;;;1.67;1.58;;;20.70;53.00;;;;;;4912818;29;20260;-35
2022/09/01 09:40:15;;;;;;;2.22;1.60;;;20.80;53.00;;;;;;4893934;29;20753;-36
2022/09/01 09:43:06;;;;;;;2.70;1.60;;;20.70;53.00;;;;;;4893628;29;20291;-35
2022/09/01 09:45:38;;;;;;;2.75;1.58;;;20.70;53.10;;;;;;4893321;29;20284;-35
2022/09/01 09:48:12;;;;;;;2.38;1.40;;;20.70;53.10;;;;;;4894746;29;20339;-35
2022/09/01 09:50:43;;;;;;;2.28;1.70;;;20.60;53.20;;;;;;4912605;29;20678;-36
2022/09/01 09:53:31;;;;;;;3.40;2.03;;;20.60;53.20;;;;;;4912556;29;20268;-35
2022/09/01 09:56:05;;;;;;;6.18;2.45;;;20.60;53.30;;;;;;4922557;23;20220;-39
2022/09/01 09:58:40;;;;;;;7.20;3.30;;;20.60;53.50;;;;;;4913798;29;20208;-35
2022/09/01 10:01:15;;;;;;;10.27;2.83;;;20.70;54.10;;;;;;4913706;29;20222;-35
2022/09/01 10:03:49;;;;;;;8.57;2.67;;;20.70;54.80;;;;;;4912901;29;20239;-38
2022/09/01 10:06:34;;;;;;;8.50;2.83;;;20.70;54.20;;;;;;4912909;29;20226;-48
2022/09/01 10:09:10;;;;;;;6.40;2.85;;;20.70;54.50;;;;;;4913568;29;20204;-57
2022/09/01 10:11:42;;;;;;;7.55;2.80;;;20.70;54.50;;;;;;4913436;29;20199;-36
2022/09/01 10:14:21;;;;;;;4.72;2.20;;;20.70;54.40;;;;;;4913973;29;20263;-39
2022/09/01 10:16:56;;;;;;;2.53;2.10;;;20.60;54.40;;;;;;4913150;29;20290;-42
2022/09/01 10:19:29;;;;;;;5.70;2.45;;;20.60;54.50;;;;;;4913808;29;20191;-40
2022/09/01 10:22:00;;;;;;;8.63;3.47;;;20.60;54.50;;;;;;4913023;29;20578;-52
2022/09/01 10:24:34;;;;;;;7.15;3.35;;;20.60;54.60;;;;;;4913532;29;20212;-45
2022/09/01 10:27:09;;;;;;;5.03;2.92;;;20.60;54.70;;;;;;4913834;29;20199;-39
2022/09/01 10:29:45;;;;;;;5.35;2.92;;;20.60;54.60;;;;;;4913190;29;20187;-48
2022/09/01 10:32:22;;;;;;;5.55;2.85;;;20.60;54.60;;;;;;4913506;29;20208;-55
2022/09/01 10:34:54;;;;;;;8.68;3.00;;;20.50;54.50;;;;;;4912660;29;20280;-56
2022/09/01 10:37:26;;;;;;;5.15;2.20;;;20.50;54.50;;;;;;4914988;29;20312;-45
2022/09/01 10:40:44;;;;;;;5.75;2.97;;;20.50;54.50;;;;;;4909848;29;20200;-38
2022/09/01 10:43:41;;;;;;;5.03;2.53;;;20.50;54.50;;;;;;4895120;29;20213;-48
2022/09/01 10:46:36;;;;;;;5.65;2.80;;;20.40;54.30;;;;;;4894216;29;20233;-48
2022/09/01 10:49:29;;;;;;;4.40;2.50;;;20.40;54.30;;;;;;4902238;29;20208;-53
2022/09/01 10:52:01;;;;;;;7.18;3.42;;;20.40;54.30;;;;;;4915254;29;20204;-56
2022/09/01 10:54:54;;;;;;;6.55;3.42;;;20.30;54.40;;;;;;4916596;29;20284;-41
2022/09/01 10:57:41;;;;;;;5.85;3.28;;;20.30;54.60;;;;;;4916748;29;20228;-48
2022/09/01 11:00:48;;;;;;;5.13;3.20;;;20.30;54.70;;;;;;4916033;29;20192;-50
2022/09/01 11:03:41;;;;;;;3.53;2.55;;;20.30;54.60;;;;;;4910906;29;20287;-46
2022/09/01 11:06:32;;;;;;;4.70;2.83;;;20.30;54.50;;;;;;4916047;29;20223;-36
2022/09/01 11:09:06;;;;;;;4.85;2.85;;;20.30;54.50;;;;;;4916603;29;20694;-55
2022/09/01 11:11:44;;;;;;;4.50;2.90;;;20.20;54.50;;;;;;4898362;29;20205;-36
2022/09/01 11:14:23;;;;;;;3.85;2.72;;;20.20;54.40;;;;;;4899024;29;20212;-35
2022/09/01 11:17:14;;;;;;;6.00;3.40;;;20.10;54.40;;;;;;4919325;29;20227;-46
2022/09/01 11:19:48;;;;;;;5.25;3.00;;;20.10;54.40;;;;;;4921173;29;20192;-43
2022/09/01 11:22:33;;;;;;;4.93;2.78;;;20.10;54.40;;;;;;4934962;29;20199;-46
2022/09/01 11:25:38;;;;;;;3.75;2.50;;;20.10;54.40;;;;;;4934351;29;20258;-38
2022/09/01 11:28:12;;;;;;;4.22;2.65;;;20.10;54.40;;;;;;4931466;29;20199;-41
2022/09/01 11:30:54;;;;;;;3.92;2.50;;;20.10;54.30;;;;;;4929416;29;20219;-48
2022/09/01 11:33:46;;;;;;;5.70;3.05;;;20.10;54.30;;;;;;4924959;29;20233;-49
2022/09/01 11:36:25;;;;;;;4.32;2.70;;;20.00;54.20;;;;;;4919064;29;20570;-45
2022/09/01 11:39:00;;;;;;;3.78;2.83;;;20.00;54.10;;;;;;4915850;29;20208;-36
2022/09/01 11:41:34;;;;;;;4.85;2.80;;;20.00;54.10;;;;;;4915656;29;20289;-46
2022/09/01 11:44:12;;;;;;;4.22;2.72;;;20.00;54.20;;;;;;4915751;29;20225;-37
2022/09/01 11:46:46;;;;;;;3.65;2.40;;;20.00;54.20;;;;;;4913977;29;20204;-43
2022/09/01 11:49:38;;;;;;;3.25;2.60;;;19.90;54.20;;;;;;4913251;29;20276;-40
2022/09/01 11:52:15;;;;;;;4.10;2.25;;;19.90;54.20;;;;;;4912764;29;20207;-44
2022/09/01 11:54:47;;;;;;;3.53;2.15;;;19.90;54.20;;;;;;4905777;29;20228;-37
2022/09/01 11:57:24;;;;;;;4.70;2.58;;;19.90;54.20;;;;;;4912264;29;20299;-38
2022/09/01 11:59:55;;;;;;;4.75;2.58;;;19.90;54.10;;;;;;4919462;29;20262;-43
2022/09/01 12:02:30;;;;;;;4.03;2.20;;;19.90;54.10;;;;;;4932741;29;20199;-48
2022/09/01 12:05:01;;;;;;;3.17;2.08;;;19.90;54.10;;;;;;4932610;29;20758;-44
2022/09/01 12:07:41;;;;;;;4.22;2.63;;;19.80;54.00;;;;;;4932310;29;20207;-49
2022/09/01 12:10:26;;;;;;;3.00;2.20;;;19.80;54.00;;;;;;4913931;29;20251;-36
2022/09/01 12:13:08;;;;;;;3.10;1.83;;;19.80;54.00;;;;;;4927164;29;20306;-42
2022/09/01 12:15:41;;;;;;;3.63;2.67;;;19.80;54.00;;;;;;4933416;29;20227;-41
2022/09/01 12:18:24;;;;;;;3.65;2.30;;;19.80;54.00;;;;;;4915503;29;20380;-37
2022/09/01 12:20:56;;;;;;;5.65;2.33;;;19.80;54.00;;;;;;4913940;29;20204;-40
2022/09/01 12:23:28;;;;;;;4.88;2.58;;;19.70;54.00;;;;;;4920787;29;20202;-47
2022/09/01 12:26:00;;;;;;;2.55;2.30;;;19.70;54.00;;;;;;4918788;29;20424;-44
2022/09/01 12:28:31;;;;;;;4.43;2.60;;;19.70;54.10;;;;;;4914198;29;20416;-36
2022/09/01 12:31:05;;;;;;;2.60;1.92;;;19.70;54.00;;;;;;4914114;29;20200;-36
2022/09/01 12:33:38;;;;;;;3.63;1.90;;;19.70;54.60;;;;;;4914045;29;20204;-45
2022/09/01 12:36:23;;;;;;;2.70;2.33;;;19.70;53.90;;;;;;4924886;29;20239;-40
2022/09/01 12:38:55;;;;;;;3.53;2.05;;;19.70;53.90;;;;;;4919264;29;20661;-40
2022/09/01 12:41:28;;;;;;;2.97;2.15;;;19.70;53.90;;;;;;4910303;29;20204;-35
2022/09/01 12:43:59;;;;;;;4.25;2.38;;;19.60;53.90;;;;;;4913766;29;20657;-39
2022/09/01 12:46:46;;;;;;;2.85;1.80;;;19.60;53.90;;;;;;4914253;29;20192;-41
2022/09/01 12:49:25;;;;;;;3.28;1.90;;;19.60;53.90;;;;;;4914142;29;20211;-40
2022/09/01 12:52:15;;;;;;;3.45;2.08;;;19.60;53.90;;;;;;4913527;29;20283;-37
2022/09/01 12:54:45;;;;;;;2.88;1.90;;;19.60;53.90;;;;;;4911472;29;20239;-39
2022/09/01 12:57:29;;;;;;;2.35;1.95;;;19.50;53.90;;;;;;4895060;29;20221;-42
2022/09/01 13:00:18;;;;;;;2.65;1.73;;;19.50;53.90;;;;;;4893994;29;20209;-52
2022/09/01 13:02:51;;;;;;;3.65;2.13;;;19.50;53.90;;;;;;4894931;29;20201;-44
2022/09/01 13:05:29;;;;;;;2.47;1.73;;;19.50;53.80;;;;;;4894567;29;20263;-46
2022/09/01 13:08:02;;;;;;;2.80;1.95;;;19.50;53.80;;;;;;4902333;29;20199;-39
2022/09/01 13:10:36;;;;;;;3.58;2.10;;;19.50;53.80;;;;;;4913228;29;20242;-47
2022/09/01 13:13:08;;;;;;;2.20;1.77;;;19.50;53.80;;;;;;4928071;29;20384;-51
2022/09/01 13:15:43;;;;;;;2.15;1.80;;;19.50;53.90;;;;;;4932402;29;20593;-42
2022/09/01 13:18:13;;;;;;;4.15;2.40;;;19.50;53.90;;;;;;4932171;29;20227;-39
2022/09/01 13:20:46;;;;;;;1.85;1.60;;;19.50;53.90;;;;;;4931855;29;20195;-50
2022/09/01 13:23:17;;;;;;;2.30;1.88;;;19.40;53.80;;;;;;4932544;29;20218;-37
2022/09/01 13:25:48;;;;;;;2.67;2.00;;;19.40;53.90;;;;;;4922553;29;20224;-36
2022/09/01 13:28:23;;;;;;;2.83;1.80;;;19.40;53.90;;;;;;4913109;29;20562;-39
2022/09/01 13:30:58;;;;;;;2.58;1.77;;;19.40;53.90;;;;;;4909656;29;20333;-42
2022/09/01 13:33:29;;;;;;;2.25;1.65;;;19.40;53.90;;;;;;4912753;29;20200;-40
2022/09/01 13:36:02;;;;;;;2.85;1.90;;;19.40;53.80;;;;;;4912733;29;20566;-42
2022/09/01 13:38:33;;;;;;;3.65;1.85;;;19.40;53.80;;;;;;4912677;29;20271;-48